createdAt,value
2023-05-19T00:02:09.691Z,80.03
2023-05-19T00:04:37.922Z,80.11
2023-05-19T00:07:05.794Z,80.33
2023-05-19T00:09:33.368Z,80.43
2023-05-19T00:12:01.285Z,80.61
2023-05-19T00:14:29.283Z,80.92
2023-05-19T00:16:58.144Z,81.23
2023-05-19T00:19:26.538Z,81.32
2023-05-19T00:21:53.875Z,81.61
2023-05-19T00:24:21.246Z,82.00
2023-05-19T00:26:48.681Z,82.27
2023-05-19T00:29:18.906Z,82.68
2023-05-19T00:31:46.958Z,83.11
2023-05-19T00:34:14.440Z,83.33
2023-05-19T00:36:41.994Z,83.52
2023-05-19T00:39:09.244Z,83.70
2023-05-19T00:41:36.832Z,83.86
2023-05-19T00:44:04.444Z,83.97
2023-05-19T00:46:31.559Z,84.24
2023-05-19T00:48:59.289Z,84.34
2023-05-19T00:51:27.075Z,84.70
2023-05-19T00:53:54.477Z,84.89
2023-05-19T00:56:21.943Z,84.87
2023-05-19T00:58:53.508Z,85.14
2023-05-19T01:01:21.881Z,85.04
2023-05-19T01:03:50.713Z,85.08
2023-05-19T01:06:19.482Z,85.18
2023-05-19T01:08:47.122Z,84.90
2023-05-19T01:11:14.481Z,84.92
2023-05-19T01:13:42.178Z,84.85
2023-05-19T01:16:14.806Z,84.96
2023-05-19T01:19:11.151Z,85.02
2023-05-19T01:21:54.090Z,85.19
2023-05-19T01:24:59.108Z,85.22
2023-05-19T01:28:05.272Z,85.54
2023-05-19T01:30:43.178Z,85.60
2023-05-19T01:33:14.426Z,85.82
2023-05-19T01:35:42.742Z,86.01
2023-05-19T01:38:11.121Z,86.29
2023-05-19T01:40:42.031Z,86.57
2023-05-19T01:43:12.145Z,87.01
2023-05-19T01:45:39.509Z,87.46
2023-05-19T01:48:09.244Z,87.59
2023-05-19T01:50:39.978Z,87.97
2023-05-19T01:53:07.250Z,88.11
2023-05-19T01:55:44.891Z,88.40
2023-05-19T01:58:15.414Z,88.59
2023-05-19T02:01:14.434Z,88.62
2023-05-19T02:04:00.271Z,89.19
2023-05-19T02:06:39.632Z,89.49
2023-05-19T02:09:26.706Z,90.05
2023-05-19T02:12:04.753Z,90.72
2023-05-19T02:14:46.074Z,91.54
2023-05-19T02:17:13.793Z,92.37
2023-05-19T02:19:41.659Z,92.97
2023-05-19T02:22:08.606Z,93.51
2023-05-19T02:24:37.799Z,93.79
2023-05-19T02:27:05.468Z,94.22
2023-05-19T02:29:32.613Z,94.90
2023-05-19T02:32:01.276Z,95.38
2023-05-19T02:34:28.356Z,96.01
2023-05-19T02:36:56.598Z,96.55
2023-05-19T02:39:23.479Z,97.21
2023-05-19T02:41:51.737Z,97.68
2023-05-19T02:44:18.990Z,98.11
2023-05-19T02:46:46.229Z,98.55
2023-05-19T02:49:13.394Z,99.11
2023-05-19T02:51:40.479Z,99.70
2023-05-19T02:54:07.605Z,99.83
2023-05-19T02:56:34.741Z,99.92
2023-05-19T02:59:02.075Z,100.00
2023-05-19T03:01:29.290Z,100.00
2023-05-19T03:03:56.773Z,100.00
2023-05-19T03:06:24.665Z,100.00
2023-05-19T03:08:51.746Z,100.00
2023-05-19T03:11:18.875Z,100.00
2023-05-19T03:13:46.633Z,100.00
2023-05-19T03:16:14.281Z,100.00
2023-05-19T03:18:42.215Z,100.00
2023-05-19T03:21:09.512Z,100.00
2023-05-19T03:23:36.922Z,100.00
2023-05-19T03:26:04.628Z,100.00
2023-05-19T03:28:31.818Z,100.00
2023-05-19T03:30:59.461Z,100.00
2023-05-19T03:33:30.213Z,100.00
2023-05-19T03:35:57.956Z,100.00
2023-05-19T03:38:25.921Z,100.00
2023-05-19T03:40:57.360Z,100.00
2023-05-19T03:43:24.818Z,100.00
2023-05-19T03:45:58.135Z,100.00
2023-05-19T03:48:49.891Z,100.00
2023-05-19T03:51:23.439Z,100.00
2023-05-19T03:53:52.901Z,100.00
2023-05-19T03:56:23.436Z,100.00
2023-05-19T03:58:51.129Z,100.00
2023-05-19T04:01:19.136Z,100.00
2023-05-19T04:03:46.873Z,100.00
2023-05-19T04:06:14.043Z,100.00
2023-05-19T04:08:41.059Z,100.00
2023-05-19T04:11:08.045Z,100.00
2023-05-19T04:13:36.471Z,100.00
2023-05-19T04:16:03.599Z,100.00
2023-05-19T04:18:30.924Z,100.00
2023-05-19T04:20:58.169Z,100.00
2023-05-19T04:23:26.152Z,100.00
2023-05-19T04:25:54.805Z,100.00
2023-05-19T04:28:22.248Z,100.00
2023-05-19T04:30:51.063Z,100.00
2023-05-19T04:33:20.437Z,100.00
2023-05-19T04:35:50.559Z,100.00
2023-05-19T04:38:20.573Z,100.00
2023-05-19T04:40:50.509Z,100.00
2023-05-19T04:43:19.708Z,99.99
2023-05-19T04:45:50.523Z,100.00
2023-05-19T04:48:19.191Z,99.66
2023-05-19T04:50:49.086Z,98.33
2023-05-19T04:53:16.069Z,97.92
2023-05-19T04:55:43.318Z,97.64
2023-05-19T04:58:10.785Z,97.23
2023-05-19T05:00:38.030Z,97.63
2023-05-19T05:03:07.785Z,97.77
2023-05-19T05:38:11.998Z,87.68
2023-05-19T05:40:39.862Z,87.38
2023-05-19T05:43:09.452Z,87.53
2023-05-19T05:45:42.085Z,87.38
2023-05-19T05:48:10.284Z,86.97
2023-05-19T05:50:38.336Z,86.93
2023-05-19T05:53:07.236Z,87.10
2023-05-19T05:55:35.479Z,87.22
2023-05-19T05:58:03.985Z,86.41
2023-05-19T06:00:32.105Z,86.35
2023-05-19T06:03:00.303Z,86.26
2023-05-19T06:05:28.313Z,87.19
2023-05-19T06:07:57.292Z,87.13
2023-05-19T06:10:26.525Z,87.92
2023-05-19T06:12:53.950Z,87.90
2023-05-19T06:15:22.482Z,87.27
2023-05-19T06:18:03.031Z,87.36
2023-05-19T06:20:31.008Z,86.85
2023-05-19T06:23:00.724Z,86.14
2023-05-19T06:25:28.583Z,85.01
2023-05-19T06:27:56.198Z,85.17
2023-05-19T06:30:23.974Z,85.24
2023-05-19T06:32:59.293Z,85.53
2023-05-19T06:35:27.074Z,84.67
2023-05-19T06:37:56.069Z,84.53
2023-05-19T06:40:23.928Z,83.81
2023-05-19T06:42:51.592Z,83.17
2023-05-19T06:45:33.192Z,83.12
2023-05-19T06:48:02.221Z,82.27
2023-05-19T06:50:30.237Z,82.02
2023-05-19T06:52:58.726Z,82.82
2023-05-19T06:55:26.546Z,83.62
2023-05-19T06:57:54.146Z,83.65
2023-05-19T07:00:23.818Z,83.36
2023-05-19T07:02:53.227Z,83.06
2023-05-19T07:05:21.431Z,83.44
2023-05-19T07:07:52.692Z,82.07
2023-05-19T07:10:23.098Z,81.01
2023-05-19T07:12:50.888Z,80.62
2023-05-19T07:15:18.953Z,79.88
2023-05-19T07:17:46.745Z,79.42
2023-05-19T07:20:14.475Z,78.40
2023-05-19T07:22:41.924Z,77.20
2023-05-19T07:25:09.890Z,76.33
2023-05-19T07:27:37.610Z,76.07
2023-05-19T07:30:05.758Z,75.55
2023-05-19T07:32:33.394Z,73.37
2023-05-19T07:35:00.881Z,73.03
2023-05-19T07:37:28.322Z,71.41
2023-05-19T07:39:55.865Z,70.18
2023-05-19T07:42:23.777Z,68.25
2023-05-19T07:44:51.533Z,67.97
2023-05-19T07:47:18.985Z,67.77
2023-05-19T07:49:46.532Z,67.10
2023-05-19T07:52:14.273Z,65.18
2023-05-19T07:54:41.871Z,64.05
2023-05-19T07:57:09.383Z,62.49
2023-05-19T07:59:37.352Z,61.65
2023-05-19T08:02:05.359Z,61.76
2023-05-19T08:04:33.259Z,61.67
2023-05-19T08:07:00.951Z,62.08
2023-05-19T08:09:28.409Z,61.55
2023-05-19T08:11:56.382Z,61.11
2023-05-19T08:14:24.350Z,60.96
2023-05-19T08:16:52.024Z,60.16
2023-05-19T08:19:19.762Z,58.91
2023-05-19T08:21:48.769Z,58.09
2023-05-19T08:24:16.538Z,57.58
2023-05-19T08:26:44.600Z,57.78
2023-05-19T08:29:12.685Z,57.67
2023-05-19T08:31:41.190Z,56.36
2023-05-19T08:34:08.674Z,56.06
2023-05-19T08:36:36.208Z,55.69
2023-05-19T08:39:04.037Z,54.55
2023-05-19T08:41:31.501Z,53.07
2023-05-19T08:43:58.962Z,53.06
2023-05-19T08:46:27.103Z,52.58
2023-05-19T08:48:55.707Z,51.12
2023-05-19T08:51:41.942Z,49.90
2023-05-19T08:54:18.186Z,49.40
2023-05-19T08:56:46.047Z,48.72
2023-05-19T08:59:14.403Z,48.76
2023-05-19T09:01:43.552Z,48.62
2023-05-19T09:04:10.928Z,48.59
2023-05-19T09:06:41.341Z,49.61
2023-05-19T09:09:08.973Z,48.30
2023-05-19T09:11:37.950Z,48.26
2023-05-19T09:14:06.060Z,47.77
2023-05-19T09:16:34.271Z,47.55
2023-05-19T09:19:02.195Z,47.62
2023-05-19T09:21:32.893Z,46.80
2023-05-19T09:24:08.084Z,46.10
2023-05-19T09:26:40.344Z,46.03
2023-05-19T09:29:14.918Z,45.72
2023-05-19T09:31:52.448Z,46.06
2023-05-19T09:34:21.645Z,46.02
2023-05-19T09:36:53.878Z,45.97
2023-05-19T09:39:25.925Z,46.16
2023-05-19T09:41:54.351Z,44.20
2023-05-19T09:44:22.872Z,44.09
2023-05-19T09:46:54.148Z,43.92
2023-05-19T09:49:31.682Z,43.66
2023-05-19T09:52:02.434Z,43.66
2023-05-19T09:54:30.137Z,43.31
2023-05-19T09:57:04.150Z,43.77
2023-05-19T09:59:33.524Z,43.29
2023-05-19T10:02:01.603Z,43.15
2023-05-19T10:04:29.782Z,43.38
2023-05-19T10:07:01.217Z,43.80
2023-05-19T10:09:30.218Z,44.04
2023-05-19T10:11:58.335Z,43.64
2023-05-19T10:14:27.119Z,44.43
2023-05-19T10:16:58.063Z,44.36
2023-05-19T10:19:27.277Z,44.24
2023-05-19T10:21:55.507Z,43.62
2023-05-19T10:24:23.173Z,43.56
2023-05-19T10:27:17.450Z,42.80
2023-05-19T10:29:48.493Z,42.88
2023-05-19T10:32:18.794Z,42.27
2023-05-19T10:35:16.070Z,42.27
2023-05-19T10:37:53.779Z,42.99
2023-05-19T10:40:52.051Z,42.83
2023-05-19T10:44:08.257Z,42.94
2023-05-19T10:46:36.292Z,42.37
2023-05-19T10:49:04.093Z,42.18
2023-05-19T10:51:32.411Z,42.65
2023-05-19T10:54:03.410Z,43.14
2023-05-19T10:56:36.505Z,42.53
2023-05-19T10:59:04.154Z,42.20
2023-05-19T11:01:33.577Z,42.00
2023-05-19T11:04:16.073Z,40.90
2023-05-19T11:06:44.133Z,40.33
2023-05-19T11:09:14.068Z,39.66
2023-05-19T11:11:52.128Z,39.17
2023-05-19T11:14:21.293Z,37.87
2023-05-19T11:16:52.114Z,36.69
2023-05-19T11:19:29.350Z,36.89
2023-05-19T11:21:57.993Z,37.39
2023-05-19T11:24:44.906Z,37.73
2023-05-19T11:27:23.897Z,38.19
2023-05-19T11:29:52.171Z,38.92
2023-05-19T11:32:23.872Z,39.73
2023-05-19T11:34:51.906Z,38.68
2023-05-19T11:37:19.336Z,38.61
2023-05-19T11:39:47.646Z,37.89
2023-05-19T11:42:15.139Z,36.92
2023-05-19T11:44:46.455Z,36.13
2023-05-19T11:47:14.605Z,35.87
2023-05-19T11:49:46.027Z,35.43
2023-05-19T11:52:14.236Z,34.77
2023-05-19T11:54:44.560Z,35.23
2023-05-19T11:57:12.307Z,34.25
2023-05-19T11:59:44.280Z,33.75
2023-05-19T12:02:21.830Z,32.97
2023-05-19T12:04:52.090Z,32.36
2023-05-19T12:07:23.223Z,32.58
2023-05-19T12:09:52.037Z,32.31
2023-05-19T12:12:20.420Z,32.15
2023-05-19T12:14:50.732Z,31.95
2023-05-19T12:17:21.566Z,31.36
2023-05-19T12:19:49.377Z,31.44
2023-05-19T12:22:17.423Z,32.37
2023-05-19T12:24:45.524Z,32.52
2023-05-19T12:27:20.813Z,32.17
2023-05-19T12:29:54.941Z,31.93
2023-05-19T12:32:26.628Z,32.62
2023-05-19T12:34:55.908Z,32.22
2023-05-19T12:37:26.605Z,32.76
2023-05-19T12:39:54.685Z,32.76
2023-05-19T12:42:22.955Z,33.16
2023-05-19T12:44:52.758Z,34.04
2023-05-19T12:47:20.645Z,34.76
2023-05-19T12:50:01.308Z,34.85
2023-05-19T12:52:29.657Z,35.24
2023-05-19T12:55:01.637Z,36.06
2023-05-19T12:57:32.894Z,37.00
2023-05-19T13:00:01.214Z,37.33
2023-05-19T13:02:29.079Z,37.72
2023-05-19T13:04:59.155Z,37.94
2023-05-19T13:07:26.762Z,38.36
2023-05-19T13:09:54.887Z,39.01
2023-05-19T13:12:22.672Z,39.45
2023-05-19T13:14:50.317Z,39.02
2023-05-19T13:17:18.382Z,39.45
2023-05-19T13:19:46.507Z,39.45
2023-05-19T13:22:14.424Z,39.50
2023-05-19T13:24:41.983Z,39.83
2023-05-19T13:27:09.818Z,39.78
2023-05-19T13:29:38.050Z,39.78
2023-05-19T13:32:06.346Z,40.27
2023-05-19T13:34:33.963Z,39.25
2023-05-19T13:37:01.851Z,38.97
2023-05-19T13:39:30.107Z,38.59
2023-05-19T13:41:58.552Z,38.79
2023-05-19T13:44:26.450Z,38.70
2023-05-19T13:46:54.138Z,39.53
2023-05-19T13:49:21.977Z,39.82
2023-05-19T13:51:50.268Z,40.16
2023-05-19T13:54:18.428Z,41.13
2023-05-19T13:56:50.005Z,40.88
2023-05-19T13:59:17.760Z,41.50
2023-05-19T14:01:45.993Z,41.73
2023-05-19T14:04:14.610Z,41.96
2023-05-19T14:06:42.470Z,42.23
2023-05-19T14:09:10.441Z,42.45
2023-05-19T14:11:38.106Z,42.51
2023-05-19T14:14:06.004Z,42.95
2023-05-19T14:16:34.573Z,43.04
2023-05-19T14:19:03.600Z,43.05
2023-05-19T14:21:31.613Z,43.16
2023-05-19T14:23:59.584Z,43.04
2023-05-19T14:26:28.632Z,43.00
2023-05-19T14:28:59.726Z,43.24
2023-05-19T14:31:27.223Z,43.24
2023-05-19T14:33:55.549Z,43.37
2023-05-19T14:36:23.314Z,43.74
2023-05-19T14:38:50.984Z,43.86
2023-05-19T14:41:18.642Z,43.70
2023-05-19T14:43:47.088Z,43.90
2023-05-19T14:46:16.085Z,43.93
2023-05-19T14:48:43.488Z,44.15
2023-05-19T14:51:11.130Z,44.55
2023-05-19T14:53:38.788Z,44.35
2023-05-19T14:56:07.578Z,44.56
2023-05-19T14:58:35.266Z,44.53
2023-05-19T15:01:02.827Z,44.62
2023-05-19T15:03:31.116Z,45.06
2023-05-19T15:05:58.843Z,45.08
2023-05-19T15:08:26.727Z,45.08
2023-05-19T15:10:54.876Z,45.15
2023-05-19T15:13:22.690Z,45.56
2023-05-19T15:16:08.270Z,45.64
2023-05-19T15:18:44.233Z,46.05
2023-05-19T15:21:13.210Z,46.59
2023-05-19T15:23:41.343Z,46.63
2023-05-19T15:26:09.108Z,46.77
2023-05-19T15:28:36.560Z,46.81
2023-05-19T15:31:04.244Z,46.78
2023-05-19T15:33:32.202Z,46.84
2023-05-19T15:35:59.958Z,46.64
2023-05-19T15:38:29.233Z,46.98
2023-05-19T15:40:57.743Z,46.98
2023-05-19T15:43:25.707Z,47.32
2023-05-19T15:45:55.466Z,48.11
2023-05-19T15:48:23.796Z,47.80
2023-05-19T15:50:52.381Z,48.10
2023-05-19T15:53:20.623Z,47.90
2023-05-19T15:55:48.321Z,47.05
2023-05-19T15:58:17.150Z,46.78
2023-05-19T16:00:44.667Z,46.59
2023-05-19T16:03:13.281Z,46.52
2023-05-19T16:05:43.675Z,46.50
2023-05-19T16:08:11.239Z,46.26
2023-05-19T16:10:39.004Z,46.12
2023-05-19T16:13:06.615Z,46.05
2023-05-19T16:15:35.913Z,46.03
2023-05-19T16:18:03.679Z,46.14
2023-05-19T16:20:31.740Z,46.23
2023-05-19T16:22:59.789Z,46.50
2023-05-19T16:25:27.634Z,46.63
2023-05-19T16:27:55.393Z,46.61
2023-05-19T16:30:23.465Z,46.73
2023-05-19T16:32:51.083Z,46.82
2023-05-19T16:35:18.714Z,46.75
2023-05-19T16:37:46.552Z,47.32
2023-05-19T16:40:14.315Z,47.35
2023-05-19T16:42:42.698Z,47.50
2023-05-19T16:45:10.773Z,47.37
2023-05-19T16:47:38.708Z,47.86
2023-05-19T16:50:07.711Z,48.00
2023-05-19T16:52:37.063Z,48.33
2023-05-19T16:55:09.247Z,48.66
2023-05-19T16:57:36.953Z,48.55
2023-05-19T17:00:05.031Z,48.71
2023-05-19T17:02:33.744Z,48.98
2023-05-19T17:05:01.480Z,49.75
2023-05-19T17:07:29.682Z,50.00
2023-05-19T17:09:57.478Z,50.27
2023-05-19T17:12:25.618Z,50.12
2023-05-19T17:14:54.995Z,50.24
2023-05-19T17:17:22.752Z,50.70
2023-05-19T17:19:50.621Z,50.80
2023-05-19T17:22:18.109Z,51.20
2023-05-19T17:24:46.144Z,51.33
2023-05-19T17:27:13.705Z,51.79
2023-05-19T17:29:41.366Z,52.27
2023-05-19T17:32:08.848Z,52.58
2023-05-19T17:34:36.814Z,52.27
2023-05-19T17:37:04.726Z,52.32
2023-05-19T17:39:32.317Z,52.22
2023-05-19T17:42:00.377Z,52.20
2023-05-19T17:44:27.845Z,52.28
2023-05-19T17:46:55.471Z,52.46
2023-05-19T17:49:24.706Z,52.60
2023-05-19T17:51:52.811Z,52.62
2023-05-19T17:54:21.622Z,52.45
2023-05-19T17:56:49.165Z,52.64
2023-05-19T17:59:17.250Z,52.83
2023-05-19T18:01:45.146Z,52.73
2023-05-19T18:04:15.953Z,52.76
2023-05-19T18:06:44.694Z,53.02
2023-05-19T18:09:13.310Z,53.02
2023-05-19T18:11:41.154Z,53.01
2023-05-19T18:14:08.799Z,53.16
2023-05-19T18:16:36.213Z,53.28
2023-05-19T18:19:03.840Z,53.70
2023-05-19T18:21:31.779Z,53.74
2023-05-19T18:24:03.330Z,53.74
2023-05-19T18:26:31.815Z,53.93
2023-05-19T18:29:03.010Z,53.73
2023-05-19T18:31:30.763Z,53.94
2023-05-19T18:33:58.174Z,54.31
2023-05-19T18:36:26.042Z,54.52
2023-05-19T18:38:55.392Z,54.50
2023-05-19T18:41:23.318Z,54.50
2023-05-19T18:43:50.875Z,54.76
2023-05-19T18:46:18.691Z,54.98
2023-05-19T18:48:46.441Z,54.94
2023-05-19T18:51:16.311Z,54.97
2023-05-19T18:53:43.977Z,55.20
2023-05-19T18:56:12.046Z,55.28
2023-05-19T18:58:39.505Z,55.62
2023-05-19T19:01:07.370Z,55.58
2023-05-19T19:03:34.867Z,55.52
2023-05-19T19:06:02.591Z,55.84
2023-05-19T19:08:34.758Z,56.13
2023-05-19T19:11:02.437Z,56.46
2023-05-19T19:13:30.178Z,56.78
2023-05-19T19:15:57.845Z,56.71
2023-05-19T19:18:26.445Z,56.63
2023-05-19T19:20:55.831Z,56.80
2023-05-19T19:23:24.206Z,56.87
2023-05-19T19:25:51.682Z,56.96
2023-05-19T19:28:19.327Z,57.09
2023-05-19T19:30:47.916Z,57.17
2023-05-19T19:33:16.028Z,57.35
2023-05-19T19:35:46.982Z,57.45
2023-05-19T19:38:14.722Z,57.69
2023-05-19T19:40:42.286Z,57.92
2023-05-19T19:43:10.003Z,58.10
2023-05-19T19:45:39.810Z,58.27
2023-05-19T19:48:07.844Z,58.43
2023-05-19T19:50:35.712Z,58.75
2023-05-19T19:53:03.731Z,58.96
2023-05-19T19:55:31.094Z,59.13
2023-05-19T19:57:58.385Z,59.30
2023-05-19T20:00:25.889Z,59.51
2023-05-19T20:03:03.686Z,59.85
2023-05-19T20:05:32.537Z,60.33
2023-05-19T20:07:59.556Z,60.64
2023-05-19T20:10:26.848Z,60.80
2023-05-19T20:12:54.538Z,60.93
2023-05-19T20:15:21.940Z,60.91
2023-05-19T20:17:49.324Z,61.03
2023-05-19T20:20:16.930Z,61.30
2023-05-19T20:22:47.128Z,61.52
2023-05-19T20:25:14.789Z,61.32
2023-05-19T20:27:41.943Z,61.30
2023-05-19T20:30:09.798Z,61.46
2023-05-19T20:32:37.445Z,61.68
2023-05-19T20:35:05.340Z,61.88
2023-05-19T20:37:32.689Z,61.92
2023-05-19T20:39:59.816Z,62.07
2023-05-19T20:42:27.194Z,62.27
2023-05-19T20:44:54.655Z,62.31
2023-05-19T20:47:22.006Z,62.40
2023-05-19T20:49:49.564Z,62.57
2023-05-19T20:52:17.132Z,62.69
2023-05-19T20:54:45.494Z,62.78
2023-05-19T20:57:12.958Z,63.00
2023-05-19T20:59:40.344Z,62.98
2023-05-19T21:02:08.603Z,63.11
2023-05-19T21:04:36.592Z,63.21
2023-05-19T21:07:04.001Z,63.00
2023-05-19T21:09:31.604Z,63.33
2023-05-19T21:11:59.080Z,63.42
2023-05-19T21:14:26.898Z,63.59
2023-05-19T21:16:54.691Z,63.64
2023-05-19T21:19:23.335Z,63.70
2023-05-19T21:21:51.428Z,63.85
2023-05-19T21:24:18.714Z,64.00
2023-05-19T21:26:46.286Z,64.06
2023-05-19T21:29:13.621Z,64.20
2023-05-19T21:31:41.346Z,64.29
2023-05-19T21:34:08.699Z,64.55
2023-05-19T21:36:36.360Z,64.60
2023-05-19T21:39:04.731Z,64.72
2023-05-19T21:41:32.809Z,65.02
2023-05-19T21:44:00.273Z,65.09
2023-05-19T21:46:29.418Z,65.25
2023-05-19T21:48:57.032Z,65.56
2023-05-19T21:51:24.278Z,65.79
2023-05-19T21:53:51.779Z,65.91
2023-05-19T21:56:19.295Z,66.20
2023-05-19T21:58:46.276Z,66.44
2023-05-19T22:01:14.625Z,66.47
2023-05-19T22:03:42.350Z,66.59
2023-05-19T22:06:09.742Z,66.91
2023-05-19T22:08:37.199Z,67.20
2023-05-19T22:11:05.158Z,67.45
2023-05-19T22:13:32.466Z,67.58
2023-05-19T22:16:00.242Z,68.19
2023-05-19T22:18:27.277Z,68.74
2023-05-19T22:20:54.581Z,68.99
2023-05-19T22:23:21.885Z,69.23
2023-05-19T22:25:49.409Z,69.84
2023-05-19T22:28:16.747Z,70.30
2023-05-19T22:30:44.623Z,70.70
2023-05-19T22:33:12.457Z,71.26
2023-05-19T22:35:39.834Z,71.61
2023-05-19T22:38:08.822Z,72.69
2023-05-19T22:40:38.155Z,72.88
2023-05-19T22:43:05.368Z,73.44
2023-05-19T22:45:34.084Z,74.63
2023-05-19T22:48:02.087Z,76.27
2023-05-19T22:50:29.170Z,76.78
2023-05-19T22:52:56.473Z,76.84
2023-05-19T22:55:23.779Z,76.85
2023-05-19T22:57:51.751Z,76.48
2023-05-19T23:00:21.258Z,76.48
2023-05-19T23:02:48.676Z,76.32
2023-05-19T23:05:19.040Z,76.54
2023-05-19T23:07:46.179Z,77.12
2023-05-19T23:10:13.329Z,77.25
2023-05-19T23:12:40.478Z,77.85
2023-05-19T23:15:08.857Z,78.72
2023-05-19T23:17:36.554Z,79.94
2023-05-19T23:20:04.592Z,81.67
2023-05-19T23:22:31.744Z,84.15
2023-05-19T23:24:59.235Z,86.59
2023-05-19T23:27:26.962Z,86.99
2023-05-19T23:29:54.622Z,87.05
2023-05-19T23:32:23.028Z,87.54
2023-05-19T23:34:50.046Z,88.05
2023-05-19T23:37:17.506Z,88.64
2023-05-19T23:39:44.654Z,89.56
2023-05-19T23:42:13.544Z,90.22
2023-05-19T23:44:40.900Z,91.22
2023-05-19T23:47:08.423Z,92.60
2023-05-19T23:49:36.123Z,93.01
2023-05-19T23:52:03.438Z,93.23
2023-05-19T23:54:31.474Z,93.29
2023-05-19T23:56:58.906Z,93.56
2023-05-19T23:59:26.269Z,93.82
